sensor_id;sensor_type;location;lat;lon;timestamp;pressure;altitude;pressure_sealevel;temperature;humidity
48882;BME280;57063;51.406;-2.402;2023-09-08T08:57:52;100626.25;;;24.96;62.64
48882;BME280;57063;51.406;-2.402;2023-09-08T09:00:18;100630.41;;;25.13;60.50
48882;BME280;57063;51.406;-2.402;2023-09-08T09:02:45;100640.06;;;25.29;58.82
48882;BME280;57063;51.406;-2.402;2023-09-08T09:05:14;100636.53;;;25.67;59.69
48882;BME280;57063;51.406;-2.402;2023-09-08T09:07:43;100628.59;;;25.96;56.12
48882;BME280;57063;51.406;-2.402;2023-09-08T09:10:09;100640.44;;;26.52;55.68
48882;BME280;57063;51.406;-2.402;2023-09-08T09:12:38;100645.19;;;26.99;53.51
48882;BME280;57063;51.406;-2.402;2023-09-08T09:15:05;100644.28;;;27.63;49.94
48882;BME280;57063;51.406;-2.402;2023-09-08T09:17:32;100649.56;;;27.63;49.70
48882;BME280;57063;51.406;-2.402;2023-09-08T09:20:17;100659.84;;;27.80;49.61
48882;BME280;57063;51.406;-2.402;2023-09-08T09:22:45;100662.50;;;28.21;49.45
48882;BME280;57063;51.406;-2.402;2023-09-08T09:25:31;100650.69;;;28.24;51.15
48882;BME280;57063;51.406;-2.402;2023-09-08T09:27:59;100651.19;;;28.47;48.29
48882;BME280;57063;51.406;-2.402;2023-09-08T09:30:25;100652.34;;;28.38;47.28
48882;BME280;57063;51.406;-2.402;2023-09-08T09:33:04;100641.44;;;28.81;47.77
48882;BME280;57063;51.406;-2.402;2023-09-08T09:35:48;100646.56;;;28.76;46.85
48882;BME280;57063;51.406;-2.402;2023-09-08T09:38:15;100635.34;;;29.27;46.48
48882;BME280;57063;51.406;-2.402;2023-09-08T09:40:44;100641.06;;;29.17;47.70
48882;BME280;57063;51.406;-2.402;2023-09-08T09:43:11;100636.53;;;29.51;46.45
48882;BME280;57063;51.406;-2.402;2023-09-08T09:45:38;100633.34;;;29.94;43.29
48882;BME280;57063;51.406;-2.402;2023-09-08T09:48:05;100638.66;;;30.01;42.88
48882;BME280;57063;51.406;-2.402;2023-09-08T09:50:33;100648.63;;;30.12;42.07
48882;BME280;57063;51.406;-2.402;2023-09-08T09:53:13;100645.09;;;29.73;42.98
48882;BME280;57063;51.406;-2.402;2023-09-08T09:55:41;100647.75;;;29.60;43.78
48882;BME280;57063;51.406;-2.402;2023-09-08T09:58:08;100643.97;;;29.94;44.02
48882;BME280;57063;51.406;-2.402;2023-09-08T10:00:36;100641.22;;;30.27;43.97
48882;BME280;57063;51.406;-2.402;2023-09-08T10:03:04;100650.44;;;30.18;43.02
48882;BME280;57063;51.406;-2.402;2023-09-08T10:05:32;100653.50;;;30.60;43.55
48882;BME280;57063;51.406;-2.402;2023-09-08T10:07:59;100652.09;;;30.58;41.15
48882;BME280;57063;51.406;-2.402;2023-09-08T10:10:28;100642.94;;;30.79;39.99
48882;BME280;57063;51.406;-2.402;2023-09-08T10:13:02;100654.72;;;30.96;40.79
48882;BME280;57063;51.406;-2.402;2023-09-08T10:15:30;100661.38;;;30.80;42.13
48882;BME280;57063;51.406;-2.402;2023-09-08T10:17:56;100659.50;;;31.12;41.50
48882;BME280;57063;51.406;-2.402;2023-09-08T10:20:27;100655.44;;;31.10;43.36
48882;BME280;57063;51.406;-2.402;2023-09-08T10:23:23;100645.44;;;31.24;41.12
48882;BME280;57063;51.406;-2.402;2023-09-08T10:25:56;100650.06;;;31.17;41.97
48882;BME280;57063;51.406;-2.402;2023-09-08T10:28:25;100647.41;;;31.35;42.91
48882;BME280;57063;51.406;-2.402;2023-09-08T10:30:53;100652.94;;;31.77;41.90
48882;BME280;57063;51.406;-2.402;2023-09-08T10:35:59;100649.53;;;31.51;41.91
48882;BME280;57063;51.406;-2.402;2023-09-08T10:38:31;100645.53;;;31.35;41.45
48882;BME280;57063;51.406;-2.402;2023-09-08T10:43:45;100647.53;;;31.22;42.72
48882;BME280;57063;51.406;-2.402;2023-09-08T10:46:12;100651.22;;;31.21;41.86
48882;BME280;57063;51.406;-2.402;2023-09-08T10:48:46;100646.72;;;30.96;43.50
48882;BME280;57063;51.406;-2.402;2023-09-08T10:51:17;100652.22;;;31.01;42.20
48882;BME280;57063;51.406;-2.402;2023-09-08T10:53:43;100654.94;;;31.20;42.09
48882;BME280;57063;51.406;-2.402;2023-09-08T10:56:11;100660.06;;;31.46;41.75
48882;BME280;57063;51.406;-2.402;2023-09-08T10:58:38;100660.06;;;31.46;44.34
48882;BME280;57063;51.406;-2.402;2023-09-08T11:01:04;100652.16;;;31.95;42.92
48882;BME280;57063;51.406;-2.402;2023-09-08T11:06:03;100648.91;;;32.23;41.42
48882;BME280;57063;51.406;-2.402;2023-09-08T11:08:29;100644.84;;;32.51;42.84
48882;BME280;57063;51.406;-2.402;2023-09-08T11:10:55;100644.75;;;32.57;42.30
48882;BME280;57063;51.406;-2.402;2023-09-08T11:13:21;100645.59;;;32.81;42.61
48882;BME280;57063;51.406;-2.402;2023-09-08T11:15:46;100638.78;;;33.09;39.24
48882;BME280;57063;51.406;-2.402;2023-09-08T11:18:12;100628.69;;;33.35;38.81
48882;BME280;57063;51.406;-2.402;2023-09-08T11:20:38;100633.66;;;33.66;38.54
48882;BME280;57063;51.406;-2.402;2023-09-08T11:23:04;100633.44;;;33.68;38.81
48882;BME280;57063;51.406;-2.402;2023-09-08T11:25:32;100630.69;;;33.80;38.36
48882;BME280;57063;51.406;-2.402;2023-09-08T11:27:59;100639.78;;;33.79;39.89
48882;BME280;57063;51.406;-2.402;2023-09-08T11:30:26;100629.38;;;33.65;37.64
48882;BME280;57063;51.406;-2.402;2023-09-08T11:32:52;100629.25;;;33.49;39.83
48882;BME280;57063;51.406;-2.402;2023-09-08T11:35:17;100623.34;;;33.87;35.67
48882;BME280;57063;51.406;-2.402;2023-09-08T11:37:46;100621.44;;;33.71;36.41
48882;BME280;57063;51.406;-2.402;2023-09-08T11:40:12;100633.72;;;34.41;36.99
48882;BME280;57063;51.406;-2.402;2023-09-08T11:42:40;100626.69;;;34.51;35.94
48882;BME280;57063;51.406;-2.402;2023-09-08T11:45:12;100629.81;;;34.77;35.63
48882;BME280;57063;51.406;-2.402;2023-09-08T11:47:42;100627.84;;;34.89;35.17
48882;BME280;57063;51.406;-2.402;2023-09-08T11:50:11;100634.38;;;34.31;36.06
48882;BME280;57063;51.406;-2.402;2023-09-08T11:52:44;100626.81;;;34.90;36.22
48882;BME280;57063;51.406;-2.402;2023-09-08T11:55:11;100633.78;;;34.74;36.22
48882;BME280;57063;51.406;-2.402;2023-09-08T11:57:37;100623.53;;;35.22;35.10
48882;BME280;57063;51.406;-2.402;2023-09-08T12:00:04;100622.38;;;35.57;34.77
48882;BME280;57063;51.406;-2.402;2023-09-08T12:02:34;100612.78;;;35.61;35.82
48882;BME280;57063;51.406;-2.402;2023-09-08T12:05:01;100622.09;;;35.75;34.56
48882;BME280;57063;51.406;-2.402;2023-09-08T12:07:26;100630.59;;;35.28;34.34
48882;BME280;57063;51.406;-2.402;2023-09-08T12:09:52;100631.66;;;35.66;34.38
48882;BME280;57063;51.406;-2.402;2023-09-08T12:12:17;100631.19;;;35.96;34.29
48882;BME280;57063;51.406;-2.402;2023-09-08T12:14:43;100634.66;;;35.97;34.81
48882;BME280;57063;51.406;-2.402;2023-09-08T12:17:09;100627.13;;;35.50;34.87
48882;BME280;57063;51.406;-2.402;2023-09-08T12:19:36;100622.88;;;35.54;35.01
48882;BME280;57063;51.406;-2.402;2023-09-08T12:22:06;100622.31;;;35.52;35.20
48882;BME280;57063;51.406;-2.402;2023-09-08T12:27:12;100620.56;;;36.34;34.25
48882;BME280;57063;51.406;-2.402;2023-09-08T12:29:38;100623.19;;;36.56;34.35
48882;BME280;57063;51.406;-2.402;2023-09-08T12:32:04;100615.63;;;36.85;33.60
48882;BME280;57063;51.406;-2.402;2023-09-08T12:34:30;100621.75;;;36.48;33.90
48882;BME280;57063;51.406;-2.402;2023-09-08T12:36:56;100613.16;;;36.46;33.97
48882;BME280;57063;51.406;-2.402;2023-09-08T12:39:21;100618.84;;;36.22;34.29
48882;BME280;57063;51.406;-2.402;2023-09-08T12:41:47;100611.56;;;36.82;32.98
48882;BME280;57063;51.406;-2.402;2023-09-08T12:44:13;100609.34;;;36.42;34.07
48882;BME280;57063;51.406;-2.402;2023-09-08T12:46:39;100610.16;;;36.75;33.01
48882;BME280;57063;51.406;-2.402;2023-09-08T12:49:05;100606.72;;;36.84;32.61
48882;BME280;57063;51.406;-2.402;2023-09-08T12:51:34;100610.88;;;36.33;33.73
48882;BME280;57063;51.406;-2.402;2023-09-08T12:53:59;100610.91;;;36.38;32.59
48882;BME280;57063;51.406;-2.402;2023-09-08T12:56:25;100610.81;;;36.00;35.25
48882;BME280;57063;51.406;-2.402;2023-09-08T12:58:52;100608.00;;;36.12;34.45
48882;BME280;57063;51.406;-2.402;2023-09-08T13:01:18;100605.50;;;36.33;33.54
48882;BME280;57063;51.406;-2.402;2023-09-08T13:03:45;100599.78;;;36.56;34.20
48882;BME280;57063;51.406;-2.402;2023-09-08T13:06:18;100597.72;;;36.63;32.61
48882;BME280;57063;51.406;-2.402;2023-09-08T13:08:47;100597.44;;;36.33;33.37
48882;BME280;57063;51.406;-2.402;2023-09-08T13:11:14;100599.66;;;36.14;33.04
48882;BME280;57063;51.406;-2.402;2023-09-08T13:13:41;100609.22;;;36.27;33.30
48882;BME280;57063;51.406;-2.402;2023-09-08T13:16:07;100601.47;;;36.08;33.00
48882;BME280;57063;51.406;-2.402;2023-09-08T13:18:34;100595.78;;;36.27;33.70
48882;BME280;57063;51.406;-2.402;2023-09-08T13:21:06;100583.72;;;35.36;33.95
48882;BME280;57063;51.406;-2.402;2023-09-08T13:23:32;100583.41;;;35.32;35.60
48882;BME280;57063;51.406;-2.402;2023-09-08T13:26:00;100584.59;;;35.20;35.75
48882;BME280;57063;51.406;-2.402;2023-09-08T13:28:28;100578.66;;;35.01;36.44
48882;BME280;57063;51.406;-2.402;2023-09-08T13:30:54;100572.94;;;34.75;37.48
48882;BME280;57063;51.406;-2.402;2023-09-08T13:33:20;100576.47;;;34.30;36.70
48882;BME280;57063;51.406;-2.402;2023-09-08T13:35:50;100574.50;;;34.08;37.04
48882;BME280;57063;51.406;-2.402;2023-09-08T13:38:17;100572.34;;;34.22;37.54
48882;BME280;57063;51.406;-2.402;2023-09-08T13:40:46;100572.97;;;34.13;37.13
48882;BME280;57063;51.406;-2.402;2023-09-08T13:43:14;100565.75;;;34.13;36.87
48882;BME280;57063;51.406;-2.402;2023-09-08T13:45:46;100564.19;;;33.88;37.20
48882;BME280;57063;51.406;-2.402;2023-09-08T13:48:24;100566.13;;;33.76;38.05
48882;BME280;57063;51.406;-2.402;2023-09-08T13:51:30;100563.38;;;33.47;37.73
48882;BME280;57063;51.406;-2.402;2023-09-08T13:54:37;100555.38;;;33.36;38.07
48882;BME280;57063;51.406;-2.402;2023-09-08T13:57:06;100552.53;;;33.54;38.70
48882;BME280;57063;51.406;-2.402;2023-09-08T13:59:38;100549.59;;;33.67;38.51
48882;BME280;57063;51.406;-2.402;2023-09-08T14:02:07;100546.75;;;33.86;38.57
48882;BME280;57063;51.406;-2.402;2023-09-08T14:04:37;100551.63;;;33.60;39.10
48882;BME280;57063;51.406;-2.402;2023-09-08T14:07:07;100548.47;;;33.63;38.63
48882;BME280;57063;51.406;-2.402;2023-09-08T14:10:18;100543.28;;;33.85;37.74
48882;BME280;57063;51.406;-2.402;2023-09-08T14:12:49;100541.69;;;33.20;38.86
48882;BME280;57063;51.406;-2.402;2023-09-08T14:15:18;100539.72;;;33.16;39.47
48882;BME280;57063;51.406;-2.402;2023-09-08T14:17:45;100534.38;;;33.04;39.42
48882;BME280;57063;51.406;-2.402;2023-09-08T14:20:12;100535.78;;;33.07;40.98
48882;BME280;57063;51.406;-2.402;2023-09-08T14:22:41;100538.91;;;32.92;39.40
48882;BME280;57063;51.406;-2.402;2023-09-08T14:25:08;100539.03;;;33.09;40.25
48882;BME280;57063;51.406;-2.402;2023-09-08T14:27:35;100529.38;;;33.19;39.84
48882;BME280;57063;51.406;-2.402;2023-09-08T14:30:03;100526.25;;;33.11;40.36
48882;BME280;57063;51.406;-2.402;2023-09-08T14:32:30;100524.25;;;33.06;40.34
48882;BME280;57063;51.406;-2.402;2023-09-08T14:34:56;100519.84;;;33.00;39.96
48882;BME280;57063;51.406;-2.402;2023-09-08T14:37:23;100524.84;;;32.49;40.47
48882;BME280;57063;51.406;-2.402;2023-09-08T14:39:49;100521.34;;;32.49;40.88
48882;BME280;57063;51.406;-2.402;2023-09-08T14:42:16;100527.00;;;32.40;42.12
48882;BME280;57063;51.406;-2.402;2023-09-08T14:44:42;100526.63;;;32.25;41.49
48882;BME280;57063;51.406;-2.402;2023-09-08T14:47:08;100529.34;;;32.49;41.78
48882;BME280;57063;51.406;-2.402;2023-09-08T14:49:34;100536.25;;;32.26;42.80
48882;BME280;57063;51.406;-2.402;2023-09-08T14:52:03;100526.47;;;31.78;42.34
48882;BME280;57063;51.406;-2.402;2023-09-08T14:54:31;100530.59;;;31.92;44.04
48882;BME280;57063;51.406;-2.402;2023-09-08T14:57:16;100525.44;;;32.21;43.98
48882;BME280;57063;51.406;-2.402;2023-09-08T14:59:44;100528.69;;;32.11;43.50
48882;BME280;57063;51.406;-2.402;2023-09-08T15:02:14;100525.25;;;32.34;43.03
48882;BME280;57063;51.406;-2.402;2023-09-08T15:04:40;100531.25;;;32.18;42.78
48882;BME280;57063;51.406;-2.402;2023-09-08T15:07:06;100532.63;;;32.09;43.58
48882;BME280;57063;51.406;-2.402;2023-09-08T15:09:32;100534.47;;;32.08;44.20
48882;BME280;57063;51.406;-2.402;2023-09-08T15:11:58;100532.41;;;31.80;44.00
48882;BME280;57063;51.406;-2.402;2023-09-08T15:14:36;100522.28;;;31.82;45.20
48882;BME280;57063;51.406;-2.402;2023-09-08T15:17:06;100528.66;;;31.51;45.88
48882;BME280;57063;51.406;-2.402;2023-09-08T15:19:33;100518.91;;;31.38;46.56
48882;BME280;57063;51.406;-2.402;2023-09-08T15:22:00;100523.59;;;31.06;47.60
48882;BME280;57063;51.406;-2.402;2023-09-08T15:24:26;100521.13;;;31.04;47.74
48882;BME280;57063;51.406;-2.402;2023-09-08T15:26:55;100529.72;;;30.88;47.43
48882;BME280;57063;51.406;-2.402;2023-09-08T15:29:25;100522.94;;;31.10;47.49
48882;BME280;57063;51.406;-2.402;2023-09-08T15:32:15;100522.34;;;31.08;47.65
48882;BME280;57063;51.406;-2.402;2023-09-08T15:34:43;100514.34;;;31.08;47.36
48882;BME280;57063;51.406;-2.402;2023-09-08T15:37:12;100517.16;;;31.13;47.41
48882;BME280;57063;51.406;-2.402;2023-09-08T15:39:39;100512.63;;;30.96;49.18
48882;BME280;57063;51.406;-2.402;2023-09-08T15:42:06;100503.31;;;30.80;48.70
48882;BME280;57063;51.406;-2.402;2023-09-08T15:44:32;100503.75;;;30.83;50.13
48882;BME280;57063;51.406;-2.402;2023-09-08T15:46:58;100508.50;;;30.75;49.87
48882;BME280;57063;51.406;-2.402;2023-09-08T15:49:48;100508.63;;;30.61;53.06
48882;BME280;57063;51.406;-2.402;2023-09-08T15:52:19;100508.78;;;30.66;52.38
48882;BME280;57063;51.406;-2.402;2023-09-08T15:54:46;100508.34;;;30.69;50.10
48882;BME280;57063;51.406;-2.402;2023-09-08T15:57:16;100513.97;;;30.61;50.89
48882;BME280;57063;51.406;-2.402;2023-09-08T15:59:42;100514.66;;;30.50;50.99
48882;BME280;57063;51.406;-2.402;2023-09-08T16:02:08;100508.72;;;30.48;51.34
48882;BME280;57063;51.406;-2.402;2023-09-08T16:04:35;100511.56;;;30.53;52.47
48882;BME280;57063;51.406;-2.402;2023-09-08T16:07:05;100516.72;;;30.48;52.84
48882;BME280;57063;51.406;-2.402;2023-09-08T16:09:59;100510.84;;;30.39;55.38
48882;BME280;57063;51.406;-2.402;2023-09-08T16:12:40;100514.97;;;30.35;55.82
48882;BME280;57063;51.406;-2.402;2023-09-08T16:15:38;100520.78;;;30.25;57.02
48882;BME280;57063;51.406;-2.402;2023-09-08T16:18:16;100517.13;;;30.20;56.56
48882;BME280;57063;51.406;-2.402;2023-09-08T16:20:54;100515.88;;;30.22;57.88
48882;BME280;57063;51.406;-2.402;2023-09-08T16:23:36;100516.28;;;30.26;58.34
48882;BME280;57063;51.406;-2.402;2023-09-08T16:26:41;100522.00;;;30.29;55.78
48882;BME280;57063;51.406;-2.402;2023-09-08T16:29:10;100516.78;;;30.10;59.91
48882;BME280;57063;51.406;-2.402;2023-09-08T16:31:36;100518.22;;;30.44;55.00
48882;BME280;57063;51.406;-2.402;2023-09-08T16:34:08;100520.78;;;30.19;56.83
48882;BME280;57063;51.406;-2.402;2023-09-08T16:36:38;100518.97;;;29.88;58.95
48882;BME280;57063;51.406;-2.402;2023-09-08T16:39:28;100512.06;;;29.73;60.70
48882;BME280;57063;51.406;-2.402;2023-09-08T16:41:58;100517.00;;;29.63;59.75
48882;BME280;57063;51.406;-2.402;2023-09-08T16:44:24;100520.72;;;29.55;60.34
48882;BME280;57063;51.406;-2.402;2023-09-08T16:46:52;100524.84;;;29.44;61.53
48882;BME280;57063;51.406;-2.402;2023-09-08T16:49:17;100522.81;;;29.40;60.98
48882;BME280;57063;51.406;-2.402;2023-09-08T16:51:45;100515.72;;;29.27;61.94
48882;BME280;57063;51.406;-2.402;2023-09-08T16:54:12;100519.22;;;29.14;62.74
48882;BME280;57063;51.406;-2.402;2023-09-08T16:56:39;100518.63;;;29.12;62.65
48882;BME280;57063;51.406;-2.402;2023-09-08T16:59:05;100515.13;;;28.98;64.20
48882;BME280;57063;51.406;-2.402;2023-09-08T17:01:32;100514.72;;;29.01;63.91
48882;BME280;57063;51.406;-2.402;2023-09-08T17:03:59;100514.34;;;28.78;65.56
48882;BME280;57063;51.406;-2.402;2023-09-08T17:06:26;100505.38;;;28.59;66.88
48882;BME280;57063;51.406;-2.402;2023-09-08T17:09:24;100501.66;;;29.00;63.55
48882;BME280;57063;51.406;-2.402;2023-09-08T17:11:55;100511.69;;;28.78;64.70
48882;BME280;57063;51.406;-2.402;2023-09-08T17:14:27;100510.88;;;28.57;65.98
48882;BME280;57063;51.406;-2.402;2023-09-08T17:17:16;100507.00;;;28.53;64.95
48882;BME280;57063;51.406;-2.402;2023-09-08T17:19:52;100518.81;;;28.44;66.14
48882;BME280;57063;51.406;-2.402;2023-09-08T17:22:40;100520.28;;;28.47;66.14
48882;BME280;57063;51.406;-2.402;2023-09-08T17:25:12;100517.81;;;28.45;64.73
